createdAt,value
2022-12-23T00:01:59.601Z,8.80
2022-12-23T00:04:51.080Z,8.80
2022-12-23T00:07:26.643Z,8.80
2022-12-23T00:10:00.925Z,8.80
2022-12-23T00:12:52.521Z,8.80
2022-12-23T00:15:38.559Z,8.80
2022-12-23T00:18:51.675Z,8.90
2022-12-23T00:21:50.291Z,8.90
2022-12-23T00:27:40.703Z,8.80
2022-12-23T00:30:34.898Z,8.80
2022-12-23T00:36:12.715Z,8.80
2022-12-23T00:42:18.468Z,8.80
2022-12-23T00:45:03.594Z,8.80
2022-12-23T00:48:01.671Z,8.70
2022-12-23T00:50:44.818Z,8.80
2022-12-23T00:53:26.389Z,8.80
2022-12-23T00:56:05.144Z,8.80
2022-12-23T00:58:53.434Z,8.90
2022-12-23T01:01:40.348Z,8.90
2022-12-23T01:04:31.504Z,8.90
2022-12-23T01:09:56.738Z,8.90
2022-12-23T01:12:45.106Z,8.90
2022-12-23T01:15:40.486Z,9.00
2022-12-23T01:18:32.844Z,9.00
2022-12-23T01:21:25.056Z,9.00
2022-12-23T01:24:10.331Z,9.10
2022-12-23T01:29:34.555Z,9.10
2022-12-23T01:32:14.364Z,9.20
2022-12-23T01:37:57.673Z,9.20
2022-12-23T01:40:27.592Z,9.20
2022-12-23T01:43:00.105Z,9.30
2022-12-23T01:45:47.952Z,9.30
2022-12-23T01:48:45.052Z,9.30
2022-12-23T01:51:19.144Z,9.30
2022-12-23T01:54:10.907Z,9.30
2022-12-23T01:57:00.284Z,9.30
2022-12-23T01:59:48.893Z,9.30
2022-12-23T02:02:45.088Z,9.30
2022-12-23T02:05:27.455Z,9.30
2022-12-23T02:08:38.867Z,9.30
2022-12-23T02:14:37.795Z,9.30
2022-12-23T02:17:26.707Z,9.30
2022-12-23T02:20:25.305Z,9.30
2022-12-23T02:23:26.824Z,9.30
2022-12-23T02:26:15.020Z,9.20
2022-12-23T02:29:26.817Z,9.20
2022-12-23T02:32:25.522Z,9.30
2022-12-23T02:35:09.856Z,9.20
2022-12-23T02:40:57.453Z,9.20
2022-12-23T02:43:50.846Z,9.20
2022-12-23T02:46:29.705Z,9.20
2022-12-23T02:49:01.934Z,9.20
2022-12-23T02:51:38.141Z,9.20
2022-12-23T02:54:09.607Z,9.20
2022-12-23T02:56:51.592Z,9.20
2022-12-23T02:59:24.781Z,9.20
2022-12-23T03:02:02.716Z,9.20
2022-12-23T03:04:37.447Z,9.20
2022-12-23T03:07:18.475Z,9.20
2022-12-23T03:09:53.540Z,9.20
2022-12-23T03:12:33.797Z,9.20
2022-12-23T03:15:17.592Z,9.20
2022-12-23T03:17:52.949Z,9.20
2022-12-23T03:20:29.738Z,9.20
2022-12-23T03:23:16.054Z,9.20
2022-12-23T03:25:49.963Z,9.20
2022-12-23T03:28:21.795Z,9.20
2022-12-23T03:33:59.984Z,9.20
2022-12-23T03:36:33.979Z,9.20
2022-12-23T03:39:21.054Z,9.20
2022-12-23T03:41:54.354Z,9.20
2022-12-23T03:44:27.338Z,9.20
2022-12-23T03:47:01.247Z,9.20
2022-12-23T03:49:40.208Z,9.20
2022-12-23T03:52:21.154Z,9.20
2022-12-23T03:54:56.918Z,9.10
2022-12-23T03:57:45.555Z,9.10
2022-12-23T04:00:24.677Z,9.20
2022-12-23T04:03:01.763Z,9.10
2022-12-23T04:05:35.459Z,9.10
2022-12-23T04:11:14.155Z,9.20
2022-12-23T04:14:01.661Z,9.20
2022-12-23T04:16:38.693Z,9.20
2022-12-23T04:19:09.238Z,9.20
2022-12-23T04:21:50.116Z,9.30
2022-12-23T04:24:20.739Z,9.30
2022-12-23T04:26:59.153Z,9.30
2022-12-23T04:29:36.084Z,9.30
2022-12-23T04:32:15.831Z,9.40
2022-12-23T04:34:52.316Z,9.40
2022-12-23T04:37:24.343Z,9.40
2022-12-23T04:39:58.382Z,9.40
2022-12-23T04:42:48.210Z,9.40
2022-12-23T04:45:23.358Z,9.40
2022-12-23T04:48:02.210Z,9.40
2022-12-23T04:50:35.687Z,9.40
2022-12-23T04:53:23.013Z,9.40
2022-12-23T04:56:02.141Z,9.40
2022-12-23T04:58:37.259Z,9.40
2022-12-23T05:01:10.031Z,9.40
2022-12-23T05:03:44.955Z,9.30
2022-12-23T05:06:13.381Z,9.40
2022-12-23T05:08:49.043Z,9.30
2022-12-23T05:11:35.889Z,9.30
2022-12-23T05:14:24.701Z,9.30
2022-12-23T05:17:00.898Z,9.30
2022-12-23T05:20:17.119Z,9.30
2022-12-23T05:23:01.310Z,9.30
2022-12-23T05:25:37.394Z,9.30
2022-12-23T05:28:17.895Z,9.40
2022-12-23T05:31:12.692Z,9.30
2022-12-23T05:33:44.687Z,9.30
2022-12-23T05:36:15.838Z,9.30
2022-12-23T05:38:44.312Z,9.30
2022-12-23T05:41:18.408Z,9.30
2022-12-23T05:43:51.035Z,9.30
2022-12-23T05:46:41.892Z,9.30
2022-12-23T05:49:16.156Z,9.30
2022-12-23T05:52:06.400Z,9.30
2022-12-23T05:54:49.041Z,9.30
2022-12-23T05:57:19.038Z,9.40
2022-12-23T05:59:53.840Z,9.40
2022-12-23T06:02:33.054Z,9.40
2022-12-23T06:05:10.952Z,9.40
2022-12-23T06:07:51.953Z,9.40
2022-12-23T06:10:25.792Z,9.50
2022-12-23T06:12:56.324Z,9.50
2022-12-23T06:15:27.603Z,9.50
2022-12-23T06:18:05.959Z,9.50
2022-12-23T06:20:52.654Z,9.50
2022-12-23T06:23:29.488Z,9.60
2022-12-23T06:26:07.466Z,9.50
2022-12-23T06:28:40.774Z,9.50
2022-12-23T06:31:10.571Z,9.50
2022-12-23T06:33:45.378Z,9.50
2022-12-23T06:36:28.590Z,9.60
2022-12-23T06:39:16.475Z,9.60
2022-12-23T06:42:11.381Z,9.60
2022-12-23T06:44:48.521Z,9.60
2022-12-23T06:47:29.026Z,9.60
2022-12-23T06:50:03.651Z,9.60
2022-12-23T06:52:49.210Z,9.60
2022-12-23T06:55:27.544Z,9.60
2022-12-23T06:58:02.829Z,9.70
2022-12-23T07:00:47.107Z,9.70
2022-12-23T07:03:16.577Z,9.70
2022-12-23T07:05:52.518Z,9.80
2022-12-23T07:08:28.944Z,9.70
2022-12-23T07:11:09.571Z,9.70
2022-12-23T07:13:41.392Z,9.70
2022-12-23T07:16:16.300Z,9.70
2022-12-23T07:18:55.588Z,9.70
2022-12-23T07:21:58.894Z,9.70
2022-12-23T07:24:38.659Z,9.70
2022-12-23T07:27:16.413Z,9.80
2022-12-23T07:29:54.216Z,9.80
2022-12-23T07:32:41.639Z,9.80
2022-12-23T07:35:27.301Z,9.80
2022-12-23T07:37:59.854Z,9.70
2022-12-23T07:41:01.296Z,9.70
2022-12-23T07:43:50.136Z,9.70
2022-12-23T07:46:36.093Z,9.80
2022-12-23T07:49:10.882Z,9.70
2022-12-23T07:51:50.280Z,9.70
2022-12-23T07:54:24.326Z,9.70
2022-12-23T07:57:04.804Z,9.70
2022-12-23T07:59:55.424Z,9.80
2022-12-23T08:02:30.559Z,9.80
2022-12-23T08:05:07.039Z,9.90
2022-12-23T08:07:45.888Z,9.90
2022-12-23T08:10:30.070Z,9.90
2022-12-23T08:13:04.283Z,9.90
2022-12-23T08:18:38.565Z,9.90
2022-12-23T08:21:11.243Z,9.90
2022-12-23T08:23:42.599Z,9.90
2022-12-23T08:26:54.527Z,10.00
2022-12-23T08:29:36.063Z,10.00
2022-12-23T08:32:11.924Z,10.00
2022-12-23T08:34:42.502Z,10.00
2022-12-23T08:37:13.119Z,10.10
2022-12-23T08:39:44.477Z,10.10
2022-12-23T08:42:26.957Z,10.10
2022-12-23T08:45:01.576Z,10.10
2022-12-23T08:47:42.352Z,10.10
2022-12-23T08:50:12.331Z,10.10
2022-12-23T08:52:45.915Z,10.20
2022-12-23T08:55:30.723Z,10.20
2022-12-23T08:58:04.955Z,10.20
2022-12-23T09:00:35.215Z,10.20
2022-12-23T09:03:16.902Z,10.20
2022-12-23T09:05:51.935Z,10.20
2022-12-23T09:08:24.345Z,10.20
2022-12-23T09:10:53.270Z,10.30
2022-12-23T09:13:36.170Z,10.30
2022-12-23T09:16:06.972Z,10.30
2022-12-23T09:19:04.735Z,10.30
2022-12-23T09:21:49.877Z,10.30
2022-12-23T09:24:19.497Z,10.40
2022-12-23T09:29:54.851Z,10.40
2022-12-23T09:32:42.094Z,10.40
2022-12-23T09:35:30.552Z,10.50
2022-12-23T09:38:15.215Z,10.60
2022-12-23T09:40:48.721Z,10.70
2022-12-23T09:43:21.057Z,10.70
2022-12-23T09:46:18.292Z,10.70
2022-12-23T09:51:59.388Z,10.70
2022-12-23T09:54:32.006Z,10.70
2022-12-23T09:57:06.424Z,10.70
2022-12-23T09:59:55.207Z,10.70
2022-12-23T10:02:39.522Z,10.70
2022-12-23T10:05:20.967Z,10.70
2022-12-23T10:07:57.839Z,10.70
2022-12-23T10:10:38.846Z,10.70
2022-12-23T10:15:54.301Z,10.90
2022-12-23T10:18:26.659Z,10.70
2022-12-23T10:21:07.933Z,10.70
2022-12-23T10:23:44.070Z,10.70
2022-12-23T10:26:21.965Z,10.70
2022-12-23T10:29:08.726Z,10.70
2022-12-23T10:31:58.392Z,10.70
2022-12-23T10:34:54.186Z,10.70
2022-12-23T10:37:28.768Z,10.80
2022-12-23T10:40:05.395Z,10.80
2022-12-23T10:42:58.205Z,10.80
2022-12-23T10:45:47.994Z,10.70
2022-12-23T10:48:33.072Z,10.90
2022-12-23T10:51:08.138Z,10.90
2022-12-23T10:54:03.661Z,11.00
2022-12-23T10:57:06.076Z,11.20
2022-12-23T10:59:40.383Z,11.10
2022-12-23T11:02:43.974Z,11.30
2022-12-23T11:05:18.980Z,11.30
2022-12-23T11:07:57.406Z,11.40
2022-12-23T11:10:58.508Z,11.40
2022-12-23T11:13:54.613Z,11.40
2022-12-23T11:16:49.061Z,11.40
2022-12-23T11:19:22.926Z,11.30
2022-12-23T11:21:55.949Z,11.30
2022-12-23T11:24:48.033Z,11.30
2022-12-23T11:27:24.749Z,11.30
2022-12-23T11:29:59.815Z,11.30
2022-12-23T11:32:37.496Z,11.30
2022-12-23T11:35:09.987Z,11.30
2022-12-23T11:37:41.134Z,11.40
2022-12-23T11:40:25.164Z,11.40
2022-12-23T11:42:59.825Z,11.40
2022-12-23T11:46:04.030Z,11.40
2022-12-23T11:48:58.955Z,11.50
2022-12-23T11:51:31.949Z,11.50
2022-12-23T11:54:09.587Z,11.60
2022-12-23T11:59:38.492Z,11.60
2022-12-23T12:05:23.110Z,11.70
2022-12-23T12:08:15.265Z,11.60
2022-12-23T12:10:50.482Z,11.50
2022-12-23T12:13:45.190Z,11.50
2022-12-23T12:16:25.216Z,11.50
2022-12-23T12:19:05.222Z,11.40
2022-12-23T12:21:41.511Z,11.40
2022-12-23T12:24:33.190Z,11.30
2022-12-23T12:27:15.072Z,11.30
2022-12-23T12:29:51.914Z,11.30
2022-12-23T12:32:39.251Z,11.30
2022-12-23T12:35:16.705Z,11.30
2022-12-23T12:38:24.885Z,11.30
2022-12-23T12:41:00.745Z,11.30
2022-12-23T12:43:47.605Z,11.30
2022-12-23T12:46:30.766Z,11.20
2022-12-23T12:49:27.279Z,11.20
2022-12-23T12:52:04.715Z,11.10
2022-12-23T12:54:43.009Z,11.10
2022-12-23T12:57:19.623Z,11.10
2022-12-23T13:00:09.815Z,11.10
2022-12-23T13:02:56.949Z,11.10
2022-12-23T13:05:53.371Z,11.10
2022-12-23T13:08:43.124Z,11.10
2022-12-23T13:11:38.142Z,11.10
2022-12-23T13:14:12.743Z,11.10
2022-12-23T13:16:49.072Z,11.10
2022-12-23T13:19:32.543Z,11.10
2022-12-23T13:22:14.183Z,11.10
2022-12-23T13:24:54.467Z,11.10
2022-12-23T13:27:42.705Z,11.30
2022-12-23T13:30:38.083Z,11.10
2022-12-23T13:33:14.786Z,11.00
2022-12-23T13:36:04.715Z,11.00
2022-12-23T13:39:10.482Z,11.00
2022-12-23T13:42:09.340Z,11.00
2022-12-23T13:44:42.518Z,11.00
2022-12-23T13:47:32.228Z,11.00
2022-12-23T13:50:15.652Z,11.00
2022-12-23T13:53:07.432Z,10.90
2022-12-23T13:56:00.228Z,10.90
2022-12-23T13:58:48.397Z,10.90
2022-12-23T14:01:40.125Z,11.00
2022-12-23T14:04:37.180Z,11.00
2022-12-23T14:07:23.320Z,10.90
2022-12-23T14:09:57.833Z,10.90
2022-12-23T14:12:35.989Z,10.90
2022-12-23T14:15:34.029Z,10.90
2022-12-23T14:18:19.011Z,10.80
2022-12-23T14:20:52.778Z,10.80
2022-12-23T14:23:30.348Z,10.70
2022-12-23T14:26:14.962Z,10.70
2022-12-23T14:29:07.410Z,10.70
2022-12-23T14:31:53.604Z,10.80
2022-12-23T14:34:34.724Z,10.80
2022-12-23T14:37:30.368Z,10.80
2022-12-23T14:40:56.617Z,10.80
2022-12-23T14:44:08.810Z,10.70
2022-12-23T14:47:07.732Z,10.80
2022-12-23T14:49:45.382Z,10.80
2022-12-23T14:52:46.743Z,10.80
2022-12-23T14:55:36.123Z,10.80
2022-12-23T14:58:27.875Z,10.80
2022-12-23T15:01:12.853Z,10.80
2022-12-23T15:03:48.513Z,10.80
2022-12-23T15:06:33.797Z,10.80
2022-12-23T15:09:07.415Z,10.80
2022-12-23T15:11:51.914Z,10.80
2022-12-23T15:14:29.620Z,10.70
2022-12-23T15:17:07.625Z,10.60
2022-12-23T15:20:18.582Z,10.50
2022-12-23T15:22:50.919Z,10.40
2022-12-23T15:25:40.898Z,10.30
2022-12-23T15:28:33.542Z,10.20
2022-12-23T15:34:18.424Z,10.20
2022-12-23T15:37:02.873Z,10.30
2022-12-23T15:39:36.537Z,10.30
2022-12-23T15:42:20.556Z,10.20
2022-12-23T15:44:51.423Z,10.20
2022-12-23T15:47:32.477Z,10.20
2022-12-23T15:50:11.354Z,10.20
2022-12-23T15:52:41.964Z,10.20
2022-12-23T15:55:15.430Z,10.20
2022-12-23T15:58:03.128Z,10.10
2022-12-23T16:00:42.617Z,10.10
2022-12-23T16:03:27.601Z,10.00
2022-12-23T16:06:06.862Z,10.00
2022-12-23T16:08:47.589Z,10.00
2022-12-23T16:11:23.380Z,10.00
2022-12-23T16:14:09.918Z,10.00
2022-12-23T16:16:45.426Z,9.90
2022-12-23T16:19:33.635Z,9.90
2022-12-23T16:22:08.525Z,9.90
2022-12-23T16:24:46.712Z,9.90
2022-12-23T16:27:20.321Z,9.90
2022-12-23T16:29:52.977Z,9.70
2022-12-23T16:32:28.770Z,9.90
2022-12-23T16:34:59.246Z,10.00
2022-12-23T16:37:32.147Z,10.00
2022-12-23T16:40:05.104Z,9.90
2022-12-23T16:42:40.782Z,10.00
2022-12-23T16:45:23.048Z,10.00
2022-12-23T16:48:04.989Z,10.00
2022-12-23T16:50:43.626Z,9.90
2022-12-23T16:53:20.262Z,9.90
2022-12-23T16:56:04.544Z,9.90
2022-12-23T16:58:45.951Z,9.90
2022-12-23T17:01:21.274Z,9.90
2022-12-23T17:04:08.029Z,9.80
2022-12-23T17:06:41.137Z,9.80
2022-12-23T17:09:22.453Z,9.80
2022-12-23T17:12:07.594Z,9.70
2022-12-23T17:14:39.114Z,9.60
2022-12-23T17:17:14.876Z,9.70
2022-12-23T17:19:45.105Z,9.70
2022-12-23T17:22:16.177Z,9.60
2022-12-23T17:24:51.720Z,9.60
2022-12-23T17:27:26.955Z,9.50
2022-12-23T17:30:03.793Z,9.50
2022-12-23T17:32:44.396Z,9.50
2022-12-23T17:35:18.206Z,9.50
2022-12-23T17:37:49.043Z,9.40
2022-12-23T17:40:25.479Z,9.40
2022-12-23T17:42:59.315Z,9.50
2022-12-23T17:45:34.655Z,9.40
2022-12-23T17:48:06.422Z,9.40
2022-12-23T17:50:43.877Z,9.40
2022-12-23T17:53:16.423Z,9.20
2022-12-23T17:56:05.394Z,9.40
2022-12-23T17:58:36.975Z,9.30
2022-12-23T18:01:13.855Z,9.30
2022-12-23T18:04:13.146Z,9.30
2022-12-23T18:06:57.212Z,9.30
2022-12-23T18:09:45.524Z,9.30
2022-12-23T18:12:26.229Z,9.20
2022-12-23T18:14:58.363Z,9.30
2022-12-23T18:17:27.063Z,9.20
2022-12-23T18:19:58.717Z,9.20
2022-12-23T18:22:51.460Z,9.20
2022-12-23T18:25:31.741Z,9.20
2022-12-23T18:28:15.165Z,9.10
2022-12-23T18:30:51.095Z,9.20
2022-12-23T18:33:23.561Z,9.20
2022-12-23T18:36:03.245Z,9.10
2022-12-23T18:38:49.145Z,9.10
2022-12-23T18:41:18.555Z,9.10
2022-12-23T18:43:54.499Z,9.10
2022-12-23T18:46:29.036Z,9.10
2022-12-23T18:48:59.911Z,9.10
2022-12-23T18:51:39.114Z,9.10
2022-12-23T18:54:25.952Z,9.10
2022-12-23T18:56:59.671Z,9.10
2022-12-23T18:59:51.390Z,9.10
2022-12-23T19:02:20.540Z,9.20
2022-12-23T19:05:06.385Z,9.10
2022-12-23T19:07:47.483Z,9.00
2022-12-23T19:10:32.687Z,9.10
2022-12-23T19:13:04.617Z,9.10
2022-12-23T19:15:48.587Z,9.10
2022-12-23T19:18:54.938Z,9.10
2022-12-23T19:21:28.193Z,9.10
2022-12-23T19:24:16.571Z,9.10
2022-12-23T19:27:23.739Z,9.20
2022-12-23T19:29:57.481Z,9.10
2022-12-23T19:32:34.355Z,9.10
2022-12-23T19:35:31.440Z,9.10
2022-12-23T19:38:20.331Z,9.10
2022-12-23T19:41:06.334Z,9.10
2022-12-23T19:43:37.073Z,9.10
2022-12-23T19:46:16.580Z,9.10
2022-12-23T19:49:30.960Z,9.10
2022-12-23T19:52:06.831Z,9.20
2022-12-23T19:54:53.119Z,9.20
2022-12-23T19:57:45.438Z,9.10
2022-12-23T20:00:23.598Z,9.10
2022-12-23T20:02:58.631Z,9.20
2022-12-23T20:05:32.071Z,9.20
2022-12-23T20:08:20.513Z,9.20
2022-12-23T20:11:02.900Z,9.20
2022-12-23T20:13:44.764Z,9.20
2022-12-23T20:19:42.094Z,9.30
2022-12-23T20:22:55.519Z,9.30
2022-12-23T20:25:27.581Z,9.30
2022-12-23T20:28:01.577Z,9.30
2022-12-23T20:30:49.855Z,9.30
2022-12-23T20:33:34.020Z,9.30
2022-12-23T20:36:28.538Z,9.40
2022-12-23T20:39:00.625Z,9.40
2022-12-23T20:41:37.662Z,9.40
2022-12-23T20:44:33.772Z,9.40
2022-12-23T20:50:05.982Z,9.40
2022-12-23T20:55:42.837Z,9.50
2022-12-23T20:58:32.443Z,9.50
2022-12-23T21:01:36.549Z,9.50
2022-12-23T21:04:21.435Z,9.50
2022-12-23T21:07:04.771Z,9.50
2022-12-23T21:10:02.158Z,9.50
2022-12-23T21:12:38.175Z,9.50
2022-12-23T21:15:13.065Z,9.50
2022-12-23T21:17:47.798Z,9.50
2022-12-23T21:20:25.994Z,9.50
2022-12-23T21:23:08.260Z,9.60
2022-12-23T21:25:48.116Z,9.40
2022-12-23T21:31:23.891Z,9.70
2022-12-23T21:34:09.096Z,9.70
2022-12-23T21:37:19.515Z,9.70
2022-12-23T21:40:04.163Z,9.70
2022-12-23T21:42:45.439Z,9.60
2022-12-23T21:45:27.227Z,9.60
2022-12-23T21:48:05.498Z,9.70
2022-12-23T21:50:53.464Z,9.60
2022-12-23T21:53:39.104Z,9.60
2022-12-23T21:56:37.315Z,9.50
2022-12-23T21:59:08.291Z,9.50
2022-12-23T22:01:47.356Z,9.50
2022-12-23T22:04:26.344Z,9.60
2022-12-23T22:07:05.779Z,9.70
2022-12-23T22:09:41.758Z,9.70
2022-12-23T22:12:30.151Z,9.80
2022-12-23T22:15:11.897Z,9.80
2022-12-23T22:17:43.600Z,9.80
2022-12-23T22:20:18.434Z,9.90
2022-12-23T22:25:40.987Z,10.10
2022-12-23T22:28:14.155Z,10.10
2022-12-23T22:30:57.455Z,10.10
2022-12-23T22:33:35.019Z,10.10
2022-12-23T22:36:33.992Z,10.20
2022-12-23T22:39:08.225Z,10.10
2022-12-23T22:41:45.407Z,10.20
2022-12-23T22:50:04.394Z,10.20
2022-12-23T22:52:42.368Z,10.20
2022-12-23T22:55:18.258Z,10.30
2022-12-23T22:58:05.161Z,10.30
2022-12-23T23:00:51.102Z,10.30
2022-12-23T23:03:26.326Z,10.30
2022-12-23T23:06:15.949Z,10.40
2022-12-23T23:08:53.445Z,10.30
2022-12-23T23:15:05.816Z,10.40
2022-12-23T23:18:05.270Z,10.50
2022-12-23T23:20:45.147Z,10.50
2022-12-23T23:23:21.451Z,10.50
2022-12-23T23:26:06.891Z,10.60
2022-12-23T23:28:51.096Z,10.60
2022-12-23T23:31:46.784Z,10.60
2022-12-23T23:34:32.818Z,10.60
2022-12-23T23:37:12.219Z,10.70
2022-12-23T23:40:01.358Z,10.70
2022-12-23T23:43:02.897Z,10.70
2022-12-23T23:45:53.498Z,10.70
2022-12-23T23:48:32.632Z,10.60
2022-12-23T23:51:08.279Z,10.60
2022-12-23T23:53:48.561Z,10.70
2022-12-23T23:56:28.735Z,10.50
2022-12-23T23:59:05.721Z,10.50
